Time;durP1;ratioP1;P1;durP2;ratioP2;P2;SDS_P1;SDS_P2;PMS_P1;PMS_P2;Temp;Humidity;BMP_temperature;BMP_pressure;BME280_temperature;BME280_humidity;BME280_pressure;Samples;Min_cycle;Max_cycle;Signal;HPM_P1;HPM_P2
2022/07/14 00:01:56;;;;;;;12.32;3.78;;;;;;;15.79;83.45;101925.34;5026474;28;20774;-76
2022/07/14 00:04:22;;;;;;;15.15;4.20;;;;;;;15.80;82.74;101932.47;5017782;28;20071;-76
2022/07/14 00:06:47;;;;;;;20.20;4.45;;;;;;;15.77;83.23;101940.81;5028901;28;20033;-76
2022/07/14 00:09:12;;;;;;;18.90;4.40;;;;;;;15.70;83.58;101940.44;5018515;28;20051;-76
2022/07/14 00:11:37;;;;;;;17.77;4.38;;;;;;;15.59;83.82;101946.66;5000387;28;20025;-76
2022/07/14 00:14:03;;;;;;;18.40;4.88;;;;;;;15.57;84.29;101929.69;5031622;28;20499;-76
2022/07/14 00:16:28;;;;;;;17.42;4.88;;;;;;;15.59;84.61;101918.72;5030632;28;20040;-76
2022/07/14 00:18:53;;;;;;;19.17;4.40;;;;;;;15.57;84.41;101916.13;5003295;28;20021;-76
2022/07/14 00:21:19;;;;;;;15.07;4.68;;;;;;;15.59;84.62;101907.88;5019490;28;20032;-76
2022/07/14 00:23:46;;;;;;;12.88;4.25;;;;;;;15.62;84.34;101896.78;5025586;28;20500;-76
2022/07/14 00:26:12;;;;;;;18.15;4.05;;;;;;;15.53;84.06;101895.66;5014905;28;20040;-76
2022/07/14 00:28:38;;;;;;;19.35;4.53;;;;;;;15.52;84.06;101891.22;5003242;28;20029;-76
2022/07/14 00:31:08;;;;;;;17.80;4.68;;;;;;;15.50;84.01;101901.31;5002078;28;20172;-76
2022/07/14 00:33:33;;;;;;;16.90;5.07;;;;;;;15.52;84.67;101915.59;5016835;28;20049;-76
2022/07/14 00:36:00;;;;;;;17.80;4.55;;;;;;;15.51;84.48;101925.59;5008141;28;20393;-76
2022/07/14 00:38:25;;;;;;;9.75;3.67;;;;;;;15.46;84.75;101918.78;5029043;28;20482;-76
2022/07/14 00:40:51;;;;;;;14.88;3.88;;;;;;;15.49;84.79;101923.97;5008899;28;20040;-76
2022/07/14 00:43:16;;;;;;;18.17;4.50;;;;;;;15.51;84.88;101919.31;5023007;28;20021;-76
2022/07/14 00:45:42;;;;;;;17.00;4.25;;;;;;;15.51;85.03;101913.91;5014704;28;20029;-76
2022/07/14 00:48:07;;;;;;;17.30;5.32;;;;;;;15.51;84.99;101922.03;5010527;28;20385;-76
2022/07/14 00:50:33;;;;;;;14.48;4.45;;;;;;;15.47;85.29;101906.97;5019142;28;20040;-76
2022/07/14 00:52:58;;;;;;;15.38;4.32;;;;;;;15.49;85.28;101913.13;5025582;28;20033;-76
2022/07/14 00:55:24;;;;;;;16.02;4.68;;;;;;;15.46;85.00;101921.50;5015386;28;20037;-76
2022/07/14 00:57:50;;;;;;;12.15;4.40;;;;;;;15.42;84.75;101923.59;4996712;28;20511;-76
2022/07/14 01:00:17;;;;;;;17.00;4.72;;;;;;;15.40;85.32;101921.97;5015786;28;20439;-76
2022/07/14 01:02:44;;;;;;;15.75;4.55;;;;;;;15.40;85.56;101921.97;5019841;28;20071;-76
2022/07/14 01:05:10;;;;;;;14.95;4.47;;;;;;;15.42;85.59;101923.59;5011898;28;20477;-76
2022/07/14 01:07:35;;;;;;;19.52;4.78;;;;;;;15.41;85.50;101923.72;5028742;28;20032;-76
2022/07/14 01:10:00;;;;;;;16.23;4.68;;;;;;;15.36;85.75;101921.38;5028559;28;20090;-75
2022/07/14 01:12:26;;;;;;;19.70;5.18;;;;;;;15.36;86.30;101935.75;5029814;28;20381;-75
2022/07/14 01:14:51;;;;;;;21.92;5.05;;;;;;;15.38;86.13;101938.34;5006676;28;20034;-75
2022/07/14 01:17:17;;;;;;;14.35;4.53;;;;;;;15.40;85.93;101936.38;5007982;28;20034;-75
2022/07/14 01:19:43;;;;;;;19.70;5.43;;;;;;;15.37;86.07;101934.78;5012380;28;20030;-75
2022/07/14 01:22:08;;;;;;;19.35;5.60;;;;;;;15.38;86.41;101939.22;5019519;28;20033;-75
2022/07/14 01:24:34;;;;;;;19.05;5.00;;;;;;;15.36;86.32;101943.88;5031888;28;20104;-75
2022/07/14 01:27:00;;;;;;;15.32;4.22;;;;;;;15.36;86.99;101938.47;5029579;28;20116;-75
2022/07/14 01:29:26;;;;;;;16.75;4.60;;;;;;;15.40;86.93;101933.66;5026378;28;20029;-75
2022/07/14 01:31:52;;;;;;;18.58;4.72;;;;;;;15.40;87.03;101935.53;5029591;28;20040;-75
2022/07/14 01:34:18;;;;;;;14.70;4.53;;;;;;;15.42;86.92;101944.38;5021510;28;20486;-75
2022/07/14 01:36:43;;;;;;;15.18;4.43;;;;;;;15.41;85.93;101948.94;5017423;28;20643;-75
2022/07/14 01:39:09;;;;;;;15.68;4.40;;;;;;;15.37;85.78;101945.63;5022321;28;20014;-75
2022/07/14 01:41:35;;;;;;;15.85;4.40;;;;;;;15.33;86.12;101940.53;5012046;28;20022;-75
2022/07/14 01:44:01;;;;;;;18.33;4.63;;;;;;;15.32;86.01;101942.38;5031639;28;20420;-75
2022/07/14 01:46:26;;;;;;;16.35;4.32;;;;;;;15.34;86.47;101939.56;5029545;28;20026;-75
2022/07/14 01:48:51;;;;;;;16.23;4.65;;;;;;;15.36;86.71;101932.19;5027688;28;20116;-75
2022/07/14 01:51:16;;;;;;;18.02;4.85;;;;;;;15.35;86.64;101934.03;5027364;28;20079;-75
2022/07/14 01:53:42;;;;;;;19.50;5.00;;;;;;;15.35;86.13;101934.03;5034975;28;20370;-75
2022/07/14 01:56:11;;;;;;;14.10;4.32;;;;;;;15.36;86.19;101929.50;5030924;28;20051;-75
2022/07/14 01:58:37;;;;;;;17.67;4.78;;;;;;;15.37;86.22;101925.78;5004258;28;20192;-75
2022/07/14 02:03:46;;;;;;;17.05;4.68;;;;;;;15.36;86.54;101926.78;5023464;28;20052;-75
2022/07/14 02:06:12;;;;;;;17.83;4.88;;;;;;;15.33;86.23;101924.28;5014048;28;20021;-75
2022/07/14 02:08:38;;;;;;;17.80;4.63;;;;;;;15.34;86.51;101921.50;5032358;28;20034;-75
2022/07/14 02:13:47;;;;;;;14.43;4.55;;;;;;;15.31;85.87;101928.97;5026909;28;20114;-75
2022/07/14 02:16:12;;;;;;;16.77;4.40;;;;;;;15.27;85.91;101924.75;5015109;28;20029;-75
2022/07/14 02:18:37;;;;;;;16.50;4.57;;;;;;;15.22;86.06;101929.69;5031175;28;20504;-75
2022/07/14 02:21:03;;;;;;;12.88;3.88;;;;;;;15.17;85.96;101925.47;5008244;28;21667;-75
2022/07/14 02:23:28;;;;;;;16.40;4.43;;;;;;;15.11;85.86;101925.94;5024891;28;20064;-75
2022/07/14 02:25:54;;;;;;;12.85;4.28;;;;;;;15.07;85.57;101927.16;5014822;28;20033;-75
2022/07/14 02:28:19;;;;;;;15.23;4.18;;;;;;;15.04;86.28;101927.38;5029373;28;20033;-75
2022/07/14 02:30:45;;;;;;;16.27;4.65;;;;;;;15.00;86.31;101932.13;5030833;28;20021;-75
2022/07/14 02:33:10;;;;;;;14.40;4.32;;;;;;;15.00;86.18;101928.56;5009040;28;20163;-75
2022/07/14 02:35:36;;;;;;;18.95;4.32;;;;;;;14.95;86.07;101928.03;5015163;28;20400;-75
2022/07/14 02:38:01;;;;;;;15.20;4.22;;;;;;;14.96;85.96;101910.84;5028801;28;20109;-75
2022/07/14 02:40:27;;;;;;;16.38;4.13;;;;;;;14.90;85.78;101917.56;5005426;28;20037;-75
2022/07/14 02:42:52;;;;;;;15.70;3.90;;;;;;;14.84;85.69;101907.19;5004245;28;20036;-75
2022/07/14 02:45:18;;;;;;;20.10;5.15;;;;;;;14.79;85.67;101910.25;5032317;28;20021;-75
2022/07/14 02:47:43;;;;;;;16.02;4.72;;;;;;;14.76;85.48;101902.38;5020912;28;20029;-75
2022/07/14 02:50:10;;;;;;;17.90;4.78;;;;;;;14.73;85.88;101896.31;5021954;28;20494;-75
2022/07/14 02:52:35;;;;;;;16.50;4.75;;;;;;;14.73;85.52;101896.31;5019468;28;20034;-75
2022/07/14 02:55:00;;;;;;;17.98;4.93;;;;;;;14.67;85.27;101894.91;4999475;28;20640;-75
2022/07/14 02:57:26;;;;;;;16.42;4.22;;;;;;;14.66;85.28;101891.34;5033282;28;20045;-76
2022/07/14 02:59:51;;;;;;;18.70;5.03;;;;;;;14.62;85.12;101894.41;5028189;28;20025;-76
2022/07/14 03:02:16;;;;;;;14.38;4.10;;;;;;;14.57;85.10;101897.44;5027025;28;20121;-76
2022/07/14 03:04:42;;;;;;;14.27;4.43;;;;;;;14.52;85.42;101896.88;5015038;28;20037;-76
2022/07/14 03:07:07;;;;;;;17.45;5.00;;;;;;;14.50;85.41;101902.41;5015156;28;20513;-76
2022/07/14 03:09:32;;;;;;;19.23;5.38;;;;;;;14.49;85.00;101899.81;5009835;28;20079;-76
2022/07/14 03:11:58;;;;;;;18.35;4.97;;;;;;;14.48;84.76;101895.38;5017515;28;20023;-76
2022/07/14 03:14:23;;;;;;;18.55;5.35;;;;;;;14.48;85.21;101887.25;5013928;28;20026;-76
2022/07/14 03:16:49;;;;;;;20.63;4.95;;;;;;;14.48;85.05;101889.97;5024928;28;20461;-76
2022/07/14 03:19:14;;;;;;;18.10;4.45;;;;;;;14.43;84.85;101871.38;5008741;28;20592;-76
2022/07/14 03:21:39;;;;;;;16.05;4.70;;;;;;;14.40;84.83;101873.44;5022888;28;20025;-76
2022/07/14 03:24:06;;;;;;;14.65;3.95;;;;;;;14.33;84.63;101873.03;5033851;28;20039;-76
2022/07/14 03:26:32;;;;;;;16.38;4.50;;;;;;;14.26;84.68;101875.34;5026007;28;20048;-76
2022/07/14 03:28:57;;;;;;;16.25;4.55;;;;;;;14.15;85.19;101875.22;5010959;28;20478;-76
2022/07/14 03:31:22;;;;;;;17.80;4.90;;;;;;;14.12;85.60;101873.59;5023895;28;20030;-76
2022/07/14 03:33:48;;;;;;;11.90;4.30;;;;;;;14.10;85.42;101867.47;5014599;28;20018;-76
2022/07/14 03:36:13;;;;;;;19.45;5.45;;;;;;;14.08;85.71;101872.09;5002720;28;20022;-76
2022/07/14 03:38:38;;;;;;;21.20;5.13;;;;;;;14.07;85.68;101880.31;5030015;28;20087;-76
2022/07/14 03:41:05;;;;;;;15.65;4.93;;;;;;;14.04;85.82;101877.84;5023502;28;20606;-76
2022/07/14 03:43:30;;;;;;;20.58;5.80;;;;;;;14.00;85.61;101877.22;5013586;28;20029;-76
2022/07/14 03:45:55;;;;;;;17.45;4.53;;;;;;;13.96;86.10;101879.25;5028502;28;20396;-76
2022/07/14 03:48:21;;;;;;;16.20;4.85;;;;;;;13.93;85.95;101878.63;5020791;28;20160;-76
2022/07/14 03:50:47;;;;;;;16.95;4.88;;;;;;;13.89;86.16;101883.34;5028345;28;20033;-76
2022/07/14 03:53:13;;;;;;;16.58;4.90;;;;;;;13.88;85.73;101889.75;5010866;28;20021;-76
2022/07/14 03:55:38;;;;;;;17.48;5.35;;;;;;;13.87;86.21;101895.28;5030348;28;20053;-76
2022/07/14 03:58:03;;;;;;;18.17;5.13;;;;;;;13.84;86.08;101901.75;5015230;28;20025;-76
2022/07/14 04:00:28;;;;;;;15.68;4.70;;;;;;;13.85;86.42;101898.09;5007042;28;20060;-76
2022/07/14 04:02:54;;;;;;;15.52;4.75;;;;;;;13.89;86.04;101899.56;5001126;28;20046;-76
2022/07/14 04:05:20;;;;;;;17.27;4.90;;;;;;;13.89;86.35;101904.97;5005540;28;20034;-76
2022/07/14 04:07:45;;;;;;;23.38;5.35;;;;;;;13.87;85.96;101901.53;5008724;28;20029;-76
2022/07/14 04:10:11;;;;;;;16.45;5.30;;;;;;;13.86;86.24;101907.91;4994412;28;20033;-75
2022/07/14 04:12:36;;;;;;;18.50;5.50;;;;;;;13.89;85.94;101898.72;5003853;28;20267;-75
2022/07/14 04:15:02;;;;;;;17.02;5.30;;;;;;;13.86;86.20;101902.50;4995754;28;20034;-75
2022/07/14 04:17:28;;;;;;;17.58;5.80;;;;;;;13.90;86.55;101901.31;5009182;28;20485;-75
2022/07/14 04:19:53;;;;;;;20.45;5.60;;;;;;;13.89;86.68;101899.56;4998734;28;20053;-75
2022/07/14 04:22:18;;;;;;;17.13;5.47;;;;;;;13.83;87.17;101891.06;5007712;28;20026;-75
2022/07/14 04:24:43;;;;;;;19.67;4.95;;;;;;;13.83;86.95;101891.91;5005799;28;20026;-75
2022/07/14 04:27:09;;;;;;;18.55;4.72;;;;;;;13.83;86.98;101889.19;4998132;28;20506;-75
2022/07/14 04:29:34;;;;;;;25.00;6.25;;;;;;;13.80;87.78;101901.09;4994308;28;20029;-75
2022/07/14 04:31:59;;;;;;;21.23;5.05;;;;;;;13.85;88.02;101891.78;5010379;28;20037;-75
2022/07/14 04:34:25;;;;;;;17.17;4.72;;;;;;;13.86;88.23;101897.09;5010580;28;20018;-75
2022/07/14 04:36:50;;;;;;;24.50;6.40;;;;;;;13.88;88.64;101900.56;5001596;28;20017;-75
2022/07/14 04:39:16;;;;;;;19.15;5.47;;;;;;;13.93;88.99;101898.38;5003012;28;20045;-75
2022/07/14 04:41:41;;;;;;;18.10;5.20;;;;;;;13.98;88.89;101898.94;5008077;28;20107;-76
2022/07/14 04:44:06;;;;;;;19.38;5.97;;;;;;;14.02;89.06;101885.19;5000031;28;20113;-76
2022/07/14 04:46:31;;;;;;;19.23;5.80;;;;;;;14.02;89.08;101886.06;4998659;28;20080;-76
2022/07/14 04:54:24;;;;;;;17.17;6.05;;;;;;;14.16;89.58;101875.13;4996657;28;20038;-76
2022/07/14 04:56:50;;;;;;;22.60;6.80;;;;;;;14.19;89.67;101876.75;5004056;28;20030;-76
2022/07/14 04:59:15;;;;;;;21.70;5.57;;;;;;;14.20;89.31;101891.13;5003837;28;20068;-76
2022/07/14 05:01:40;;;;;;;18.77;6.78;;;;;;;14.25;88.91;101889.81;5008293;28;20053;-76
2022/07/14 05:04:06;;;;;;;20.27;6.38;;;;;;;14.27;89.55;101895.97;5025577;28;20040;-76
2022/07/14 05:06:31;;;;;;;23.70;6.55;;;;;;;14.28;90.03;101905.81;5022310;28;20029;-76
2022/07/14 05:08:56;;;;;;;19.38;5.82;;;;;;;14.33;89.90;101902.78;5026159;28;20034;-76
2022/07/14 05:11:21;;;;;;;17.52;6.00;;;;;;;14.37;89.64;101906.13;4998521;28;20496;-76
2022/07/14 05:13:47;;;;;;;21.10;6.90;;;;;;;14.42;89.71;101907.53;5024815;28;20030;-76
2022/07/14 05:16:12;;;;;;;23.48;6.80;;;;;;;14.49;90.11;101914.22;5025812;28;20044;-76
2022/07/14 05:18:37;;;;;;;24.58;7.95;;;;;;;14.52;90.25;101907.69;5025818;28;20056;-76
2022/07/14 05:21:02;;;;;;;29.00;7.53;;;;;;;14.56;90.36;101898.41;5027192;28;20041;-76
2022/07/14 05:23:28;;;;;;;25.13;7.25;;;;;;;14.64;91.00;101897.84;5005717;28;20120;-76
2022/07/14 05:25:54;;;;;;;24.27;6.75;;;;;;;14.70;90.79;101896.53;5022597;28;20402;-76
2022/07/14 05:28:19;;;;;;;22.75;6.25;;;;;;;14.72;89.25;101898.16;5020318;28;20508;-76
2022/07/14 05:30:45;;;;;;;25.08;6.63;;;;;;;14.78;89.16;101896.84;5029166;28;20032;-76
2022/07/14 05:33:10;;;;;;;20.85;6.45;;;;;;;14.85;89.66;101903.53;5003945;28;20058;-76
2022/07/14 05:35:35;;;;;;;26.48;6.28;;;;;;;14.91;88.13;101894.09;5029482;28;20026;-76
2022/07/14 05:38:00;;;;;;;29.58;8.05;;;;;;;14.95;87.04;101893.75;4999919;28;20037;-76
2022/07/14 05:40:26;;;;;;;20.25;5.97;;;;;;;15.01;86.85;101890.56;5027512;28;20468;-76
2022/07/14 05:42:51;;;;;;;21.38;5.88;;;;;;;15.08;86.81;101887.38;5012481;28;20496;-76
2022/07/14 05:45:16;;;;;;;23.58;7.53;;;;;;;15.15;87.00;101888.66;5026981;28;20038;-76
2022/07/14 05:47:42;;;;;;;21.90;6.63;;;;;;;15.22;87.27;101897.19;5018706;28;20065;-76
2022/07/14 05:50:09;;;;;;;24.70;7.00;;;;;;;15.26;85.32;101901.38;5020152;28;20021;-75
2022/07/14 05:52:34;;;;;;;19.65;6.25;;;;;;;15.32;86.14;101903.63;5013853;28;20113;-75
2022/07/14 05:55:00;;;;;;;20.08;7.15;;;;;;;15.38;85.77;101909.41;5018420;28;20096;-75
2022/07/14 05:57:26;;;;;;;24.00;7.43;;;;;;;15.42;85.06;101901.94;5001439;28;20033;-75
2022/07/14 05:59:51;;;;;;;19.98;5.53;;;;;;;15.47;85.33;101894.28;5026146;28;20026;-76
2022/07/14 06:02:16;;;;;;;17.90;6.00;;;;;;;15.54;85.09;101902.81;5029176;28;20076;-76
2022/07/14 06:04:41;;;;;;;19.17;5.60;;;;;;;15.59;84.03;101902.47;5017482;28;20025;-76
2022/07/14 06:07:08;;;;;;;26.90;6.45;;;;;;;15.64;84.76;101901.13;5006160;28;20033;-73
2022/07/14 06:09:38;;;;;;;22.15;6.28;;;;;;;15.69;84.23;101898.91;5030573;28;20038;-73
2022/07/14 06:12:05;;;;;;;;;;;;;;;15.81;84.09;101904.38;5022739;28;20082;-73
2022/07/14 06:14:31;;;;;;;23.35;6.00;;;;;;;15.81;83.65;101901.66;5031325;28;19909;-73
2022/07/14 06:16:56;;;;;;;21.17;5.75;;;;;;;15.85;83.05;101908.56;5018434;28;20524;-73
2022/07/14 06:19:22;;;;;;;18.15;5.65;;;;;;;15.90;82.47;101901.81;5021622;28;20060;-73
2022/07/14 06:21:47;;;;;;;20.05;6.35;;;;;;;15.96;82.00;101895.03;5024543;28;20431;-74
2022/07/14 06:24:12;;;;;;;20.80;5.95;;;;;;;16.02;82.66;101888.28;5016976;28;20116;-73
2022/07/14 06:26:38;;;;;;;22.13;7.20;;;;;;;16.10;82.22;101890.34;5034774;28;20477;-73
2022/07/14 06:29:03;;;;;;;21.42;6.07;;;;;;;16.17;82.68;101897.88;5034825;28;20548;-74
2022/07/14 06:31:29;;;;;;;22.75;6.15;;;;;;;16.24;82.01;101900.97;5012923;28;20033;-74
2022/07/14 06:33:54;;;;;;;27.73;6.32;;;;;;;16.28;80.61;101907.00;5029147;28;20029;-74
2022/07/14 06:36:20;;;;;;;19.60;5.68;;;;;;;16.33;80.03;101902.91;5014707;28;20109;-74
2022/07/14 06:38:45;;;;;;;24.33;5.95;;;;;;;16.36;78.78;101908.09;4998702;28;20034;-74
2022/07/14 06:41:10;;;;;;;24.63;6.93;;;;;;;16.43;79.62;101900.34;5022438;28;20040;-74
2022/07/14 06:43:35;;;;;;;19.30;6.38;;;;;;;16.50;80.76;101906.09;5029887;28;20037;-74
2022/07/14 06:46:01;;;;;;;24.85;6.28;;;;;;;16.56;80.66;101908.31;5011959;28;20113;-74
2022/07/14 06:48:27;;;;;;;24.48;5.35;;;;;;;16.60;79.39;101905.25;5034395;28;20036;-74
2022/07/14 06:50:52;;;;;;;17.98;5.95;;;;;;;16.65;79.99;101906.69;5015101;28;20029;-74
2022/07/14 06:53:17;;;;;;;25.77;6.22;;;;;;;16.66;78.76;101901.16;5034463;28;20473;-74
2022/07/14 06:55:42;;;;;;;26.20;7.45;;;;;;;16.68;77.57;101901.03;5024727;28;20103;-73
2022/07/14 06:58:08;;;;;;;20.48;6.53;;;;;;;16.75;79.75;101897.69;5016346;28;20033;-74
2022/07/14 07:00:33;;;;;;;20.08;5.90;;;;;;;16.82;79.56;101889.88;5033168;28;20389;-74
2022/07/14 07:02:58;;;;;;;21.20;5.75;;;;;;;16.88;78.15;101888.53;5025387;28;20045;-74
2022/07/14 07:08:08;;;;;;;18.83;6.60;;;;;;;16.97;77.40;101890.50;5029234;28;20060;-74
2022/07/14 07:10:40;;;;;;;22.70;5.47;;;;;;;17.00;76.75;101895.66;5014106;28;20030;-74
2022/07/14 07:13:09;;;;;;;22.67;6.18;;;;;;;17.05;77.03;101896.13;5015308;28;20121;-75
2022/07/14 07:15:38;;;;;;;25.85;5.65;;;;;;;17.11;76.84;101898.31;5014398;28;20568;-74
2022/07/14 07:18:06;;;;;;;21.98;5.57;;;;;;;17.17;76.25;101901.53;4996535;28;20473;-74
2022/07/14 07:20:31;;;;;;;22.35;5.88;;;;;;;17.22;77.07;101897.44;5022269;28;20033;-74
2022/07/14 07:22:56;;;;;;;21.23;5.88;;;;;;;17.24;75.98;101892.72;5028425;28;20422;-73
2022/07/14 07:25:22;;;;;;;22.00;6.10;;;;;;;17.28;76.19;101896.03;5021675;28;20018;-74
2022/07/14 07:27:47;;;;;;;22.48;5.97;;;;;;;17.32;74.80;101886.66;5031487;28;20037;-74
2022/07/14 07:30:12;;;;;;;18.17;5.10;;;;;;;17.35;74.69;101890.94;5024715;28;20083;-74
2022/07/14 07:32:37;;;;;;;21.98;5.68;;;;;;;17.40;75.60;101888.69;5029198;28;20493;-74
2022/07/14 07:35:04;;;;;;;20.40;5.07;;;;;;;17.44;75.26;101887.44;5007701;28;20029;-74
2022/07/14 07:37:29;;;;;;;15.73;4.25;;;;;;;17.46;72.98;101886.28;5027878;28;20025;-74
2022/07/14 07:39:58;;;;;;;17.27;5.38;;;;;;;17.53;72.75;101872.19;5033546;28;20039;-74
2022/07/14 07:42:24;;;;;;;18.73;4.18;;;;;;;17.57;70.93;101873.63;5011122;28;20025;-74
2022/07/14 07:44:49;;;;;;;22.67;4.38;;;;;;;17.61;71.69;101869.66;5028125;28;21167;-74
2022/07/14 07:47:15;;;;;;;18.48;5.88;;;;;;;17.64;71.49;101856.66;5030596;28;20029;-74
2022/07/14 07:49:41;;;;;;;16.88;4.70;;;;;;;17.67;69.26;101865.53;5026343;28;20394;-74
2022/07/14 07:52:06;;;;;;;16.90;4.90;;;;;;;17.70;70.02;101866.16;5048803;28;20104;-74
2022/07/14 07:54:32;;;;;;;13.23;4.07;;;;;;;17.75;71.31;101866.59;5020183;28;20032;-74
2022/07/14 07:56:59;;;;;;;14.45;4.47;;;;;;;17.82;71.74;101864.22;5031179;28;20998;-74
2022/07/14 07:59:25;;;;;;;17.00;4.45;;;;;;;17.91;72.63;101865.28;5027956;28;20508;-74
2022/07/14 08:01:51;;;;;;;18.05;4.88;;;;;;;17.98;71.69;101863.75;5028175;28;20057;-74
2022/07/14 08:04:16;;;;;;;15.25;4.25;;;;;;;18.04;70.55;101857.75;5029181;28;20037;-74
2022/07/14 08:06:42;;;;;;;14.23;4.13;;;;;;;18.12;71.36;101865.22;5041795;28;20047;-74
2022/07/14 08:09:11;;;;;;;22.58;4.90;;;;;;;18.14;69.67;101853.22;5010796;28;20496;-74
2022/07/14 08:11:41;;;;;;;16.17;3.70;;;;;;;18.17;69.93;101850.22;5029951;28;20030;-74
2022/07/14 08:14:47;;;;;;;16.58;4.40;;;;;;;18.19;68.48;101850.06;5011042;28;20400;-74
2022/07/14 08:16:54;;;;;;;17.10;4.13;;;;;;;18.21;68.51;101849.94;5040111;28;20495;-74
2022/07/14 08:19:19;;;;;;;19.20;5.28;;;;;;;18.27;71.07;101852.09;5033645;28;20039;-74
2022/07/14 08:21:44;;;;;;;21.48;4.13;;;;;;;18.30;69.72;101843.66;5006887;28;20079;-74
2022/07/14 08:24:09;;;;;;;14.18;3.60;;;;;;;18.30;66.87;101835.50;5030938;28;20056;-74
2022/07/14 08:26:35;;;;;;;14.30;4.10;;;;;;;18.36;68.82;101834.97;5039928;28;20024;-74
2022/07/14 08:29:00;;;;;;;16.35;3.70;;;;;;;18.37;67.54;101830.34;5013156;28;20018;-74
2022/07/14 08:31:25;;;;;;;15.52;4.00;;;;;;;18.40;66.26;101839.09;5042607;28;20437;-74
2022/07/14 08:33:51;;;;;;;17.63;4.35;;;;;;;18.47;67.04;101842.97;5027090;28;20485;-74
2022/07/14 08:36:16;;;;;;;18.10;4.78;;;;;;;18.48;66.55;101844.72;5011939;28;20057;-74
2022/07/14 08:38:41;;;;;;;13.63;4.38;;;;;;;18.54;67.29;101836.97;5013994;28;20362;-74
2022/07/14 08:41:08;;;;;;;22.95;5.03;;;;;;;18.55;66.70;101844.16;5013060;28;20040;-74
2022/07/14 08:43:35;;;;;;;16.73;4.40;;;;;;;18.57;66.89;101844.88;5023895;28;20068;-74
2022/07/14 08:46:03;;;;;;;17.52;4.28;;;;;;;18.60;66.08;101845.44;5012754;28;20025;-74
2022/07/14 08:48:29;;;;;;;15.88;4.50;;;;;;;18.65;66.47;101853.19;5003730;28;20025;-74
2022/07/14 08:50:55;;;;;;;15.68;4.38;;;;;;;18.69;65.77;101841.00;5013262;28;20040;-74
2022/07/14 08:53:21;;;;;;;18.55;4.97;;;;;;;18.74;64.96;101837.88;5023398;28;20040;-74
2022/07/14 08:55:47;;;;;;;14.27;4.85;;;;;;;18.78;66.02;101842.03;5024434;28;20037;-73
2022/07/14 08:58:12;;;;;;;13.05;4.25;;;;;;;18.85;66.38;101835.00;5018861;28;20022;-74
2022/07/14 09:00:38;;;;;;;17.15;4.57;;;;;;;18.92;67.74;101829.88;5025831;28;20038;-73
2022/07/14 09:03:05;;;;;;;19.95;5.32;;;;;;;18.95;66.36;101837.78;5004831;28;20045;-74
2022/07/14 09:05:30;;;;;;;15.82;4.55;;;;;;;19.00;66.04;101832.75;5004333;28;20038;-74
2022/07/14 09:07:56;;;;;;;16.80;4.32;;;;;;;19.03;64.14;101836.06;5002955;28;20030;-74
2022/07/14 09:10:27;;;;;;;17.35;4.45;;;;;;;19.04;64.33;101835.03;5003506;28;20026;-74
2022/07/14 09:13:18;;;;;;;14.70;4.72;;;;;;;19.11;66.91;101832.59;5004593;28;20136;-74
2022/07/14 09:15:45;;;;;;;17.98;5.22;;;;;;;19.15;64.27;101836.75;5005724;28;20493;-74
2022/07/14 09:18:27;;;;;;;14.60;4.38;;;;;;;19.19;63.53;101843.63;5027168;28;20512;-74
2022/07/14 09:20:55;;;;;;;18.00;4.50;;;;;;;19.24;62.25;101831.44;5004169;28;20033;-73
2022/07/14 09:23:34;;;;;;;15.43;4.43;;;;;;;19.26;60.28;101830.28;5007576;28;20037;-74
2022/07/14 09:26:15;;;;;;;12.95;4.03;;;;;;;19.30;61.95;101833.59;5007182;28;20041;-74
2022/07/14 09:28:41;;;;;;;14.05;4.40;;;;;;;19.34;61.80;101840.44;5010221;28;20030;-74
2022/07/14 09:31:26;;;;;;;12.43;4.28;;;;;;;19.37;62.18;101827.41;5015692;28;20021;-74
2022/07/14 09:33:55;;;;;;;19.17;5.18;;;;;;;19.42;62.22;101824.22;5004256;28;20034;-74
2022/07/14 09:36:37;;;;;;;14.57;4.53;;;;;;;19.45;60.69;101832.13;5007476;28;20479;-74
2022/07/14 09:39:07;;;;;;;12.98;4.72;;;;;;;19.51;62.35;101826.06;5020849;28;20083;-74
2022/07/14 09:41:51;;;;;;;16.25;4.70;;;;;;;19.55;62.33;101832.09;5010029;28;20038;-74
2022/07/14 09:44:18;;;;;;;14.35;4.47;;;;;;;19.61;60.68;101828.78;5013126;28;20022;-74
2022/07/14 09:46:54;;;;;;;13.90;3.70;;;;;;;19.66;60.07;101821.00;5006091;28;20371;-74
2022/07/14 09:49:23;;;;;;;19.85;4.10;;;;;;;19.64;56.33;101831.22;5007500;28;20397;-74
2022/07/14 09:51:56;;;;;;;11.02;3.10;;;;;;;19.65;57.57;101826.59;5013773;28;20026;-74
2022/07/14 09:54:36;;;;;;;12.90;3.42;;;;;;;19.68;59.79;101827.19;5011669;28;20109;-74
2022/07/14 09:57:02;;;;;;;13.10;3.20;;;;;;;19.76;59.53;101826.44;5012629;28;20091;-74
2022/07/14 09:59:28;;;;;;;11.48;3.05;;;;;;;19.84;54.30;101828.44;5012433;28;20026;-74
2022/07/14 10:01:53;;;;;;;12.23;3.45;;;;;;;19.94;58.08;101836.59;5014383;28;20056;-74
2022/07/14 10:04:20;;;;;;;15.32;3.63;;;;;;;19.98;56.22;101827.94;5006907;28;20549;-75
2022/07/14 10:06:46;;;;;;;12.80;2.78;;;;;;;20.04;55.43;101829.22;5011651;28;20037;-74
2022/07/14 10:09:11;;;;;;;10.50;3.10;;;;;;;20.06;49.88;101822.59;5025295;28;20034;-74
2022/07/14 10:11:38;;;;;;;9.82;2.92;;;;;;;20.07;50.91;101824.34;5028047;28;20040;-74
2022/07/14 10:14:04;;;;;;;12.27;3.00;;;;;;;20.13;55.10;101827.44;5010097;28;20029;-74
2022/07/14 10:16:34;;;;;;;9.77;2.90;;;;;;;20.15;53.74;101831.75;5039833;28;20029;-73
2022/07/14 10:19:00;;;;;;;8.50;2.70;;;;;;;20.20;57.22;101839.47;5028590;28;20037;-74
2022/07/14 10:21:26;;;;;;;7.45;2.80;;;;;;;20.22;54.56;101835.59;5030694;28;20037;-74
2022/07/14 10:23:52;;;;;;;11.30;2.85;;;;;;;20.29;57.55;101834.97;5028869;28;20378;-74
2022/07/14 10:26:18;;;;;;;10.65;2.70;;;;;;;20.35;56.35;101834.38;5029997;28;20080;-74
2022/07/14 10:28:43;;;;;;;12.10;2.83;;;;;;;20.40;54.93;101829.31;5026221;28;20112;-74
2022/07/14 10:31:09;;;;;;;8.30;2.67;;;;;;;20.43;55.94;101834.47;5030317;28;20131;-74
2022/07/14 10:33:53;;;;;;;10.10;3.30;;;;;;;20.46;55.60;101839.63;5028229;28;20116;-74
2022/07/14 10:36:37;;;;;;;9.98;3.33;;;;;;;20.56;56.69;101836.84;5037377;28;20098;-74
2022/07/14 10:39:18;;;;;;;9.50;2.92;;;;;;;20.67;55.24;101841.25;5010516;28;20017;-74
2022/07/14 10:41:50;;;;;;;9.90;2.72;;;;;;;20.81;55.19;101829.78;5027526;28;20450;-74
2022/07/14 10:44:17;;;;;;;7.90;2.58;;;;;;;20.87;55.59;101834.59;5026197;28;20056;-75
2022/07/14 10:46:45;;;;;;;15.15;3.13;;;;;;;20.93;55.33;101838.59;5025375;28;20656;-75
2022/07/14 10:49:12;;;;;;;14.63;3.30;;;;;;;20.98;53.53;101833.50;5025618;28;20544;-75
2022/07/14 10:51:53;;;;;;;10.80;2.50;;;;;;;21.04;55.54;101832.00;5025507;28;20048;-74
2022/07/14 10:54:26;;;;;;;11.73;3.22;;;;;;;21.03;54.76;101836.63;5025868;28;20116;-74
2022/07/14 10:57:11;;;;;;;10.65;3.20;;;;;;;21.01;53.65;101832.34;5037602;28;20032;-75
2022/07/14 10:59:37;;;;;;;7.35;2.53;;;;;;;21.05;54.06;101831.84;5027056;28;20074;-75
2022/07/14 11:02:14;;;;;;;9.80;2.75;;;;;;;21.08;55.55;101830.69;5006561;28;20046;-75
2022/07/14 11:04:58;;;;;;;9.93;2.50;;;;;;;21.10;53.66;101829.53;5027557;28;20037;-75
2022/07/14 11:07:43;;;;;;;8.10;2.92;;;;;;;21.09;54.07;101827.78;5021934;28;20449;-75
2022/07/14 11:10:11;;;;;;;12.75;3.17;;;;;;;21.15;52.54;101828.19;5023509;28;20032;-74
2022/07/14 11:12:59;;;;;;;12.88;3.20;;;;;;;21.22;55.84;101838.31;5026542;28;20478;-74
2022/07/14 11:15:56;;;;;;;11.95;3.15;;;;;;;21.27;54.50;101840.59;5027699;28;20033;-74
2022/07/14 11:18:22;;;;;;;8.82;3.22;;;;;;;21.34;51.46;101829.88;5027693;28;20076;-74
2022/07/14 11:21:05;;;;;;;10.38;3.38;;;;;;;21.44;52.49;101836.09;5011370;28;20056;-74
2022/07/14 11:23:52;;;;;;;7.95;2.65;;;;;;;21.45;52.00;101833.22;5027323;28;20087;-74
2022/07/14 11:26:36;;;;;;;12.68;2.90;;;;;;;21.47;52.60;101833.03;5025651;28;20492;-74
2022/07/14 11:29:04;;;;;;;8.63;2.78;;;;;;;21.51;52.52;101826.28;5028302;28;20087;-74
2022/07/14 11:31:49;;;;;;;12.95;3.22;;;;;;;21.51;52.88;101831.75;5010003;28;20033;-74